Time,TemperatureF,DewpointF,PressureIn,WindDirection,WindDirectionDegrees,WindSpeedMPH,WindSpeedGustMPH,Humidity,HourlyPrecipIn,Conditions,Clouds,dailyrainin,SoftwareType,DateUTC
2013-09-03 00:00:00,80.0,75.1,29.96,SE,139,0.0,0.0,85,0.00,,,0.00,Wunderground v.1.15,2013-09-03 04:00:00,
2013-09-03 00:05:00,80.0,75.1,29.96,SE,139,0.0,0.0,85,0.00,,,0.00,Wunderground v.1.15,2013-09-03 04:05:00,
2013-09-03 00:10:00,80.0,75.1,29.96,SE,139,0.0,0.0,85,0.00,,,0.00,Wunderground v.1.15,2013-09-03 04:10:00,
2013-09-03 00:15:00,80.0,75.1,29.96,SE,139,0.0,0.0,85,0.00,,,0.00,Wunderground v.1.15,2013-09-03 04:15:00,
2013-09-03 00:20:00,79.9,75.0,29.96,SE,139,0.0,0.0,85,0.00,,,0.00,Wunderground v.1.15,2013-09-03 04:20:00,
2013-09-03 00:25:00,79.9,75.0,29.96,SE,139,0.0,0.0,85,0.00,,,0.00,Wunderground v.1.15,2013-09-03 04:25:00,
2013-09-03 00:30:00,79.9,75.0,29.96,SE,139,0.0,0.0,85,0.00,,,0.00,Wunderground v.1.15,2013-09-03 04:30:00,
2013-09-03 00:35:00,79.8,74.9,29.96,SE,139,0.0,0.0,85,0.00,,,0.00,Wunderground v.1.15,2013-09-03 04:35:00,
2013-09-03 00:40:00,79.8,75.2,29.96,SE,139,0.0,0.0,86,0.00,,,0.00,Wunderground v.1.15,2013-09-03 04:40:00,
2013-09-03 00:45:00,79.8,75.2,29.96,SE,139,0.0,0.0,86,0.00,,,0.00,Wunderground v.1.15,2013-09-03 04:45:00,
2013-09-03 00:50:00,79.7,75.1,29.96,SE,139,0.0,0.0,86,0.00,,,0.00,Wunderground v.1.15,2013-09-03 04:50:00,
2013-09-03 01:00:00,79.5,74.9,29.96,SE,139,0.0,2.0,86,0.00,,,0.00,Wunderground v.1.15,2013-09-03 05:00:00,
2013-09-03 01:05:00,79.3,74.7,29.96,SE,139,0.0,2.0,86,0.00,,,0.00,Wunderground v.1.15,2013-09-03 05:05:00,
2013-09-03 01:10:00,79.2,74.6,29.96,SE,139,0.0,1.0,86,0.00,,,0.00,Wunderground v.1.15,2013-09-03 05:10:00,
2013-09-03 01:15:00,79.1,74.5,29.96,SE,139,0.0,1.0,86,0.00,,,0.00,Wunderground v.1.15,2013-09-03 05:15:00,
2013-09-03 01:20:00,78.9,74.4,29.96,SE,139,0.0,1.0,86,0.00,,,0.00,Wunderground v.1.15,2013-09-03 05:20:00,
2013-09-03 01:25:00,78.9,74.7,29.96,SE,139,0.0,1.0,87,0.00,,,0.00,Wunderground v.1.15,2013-09-03 05:25:00,
2013-09-03 01:30:00,78.8,74.6,29.95,SE,139,0.0,1.0,87,0.00,,,0.00,Wunderground v.1.15,2013-09-03 05:30:00,
2013-09-03 01:35:00,78.7,74.5,29.95,SE,139,0.0,1.0,87,0.00,,,0.00,Wunderground v.1.15,2013-09-03 05:35:00,
2013-09-03 01:40:00,78.6,74.4,29.95,SE,139,0.0,1.0,87,0.00,,,0.00,Wunderground v.1.15,2013-09-03 05:40:00,
2013-09-03 01:45:00,78.5,74.3,29.95,SE,139,0.0,1.0,87,0.00,,,0.00,Wunderground v.1.15,2013-09-03 05:45:00,
2013-09-03 01:50:00,78.5,74.6,29.96,SE,139,0.0,1.0,88,0.00,,,0.00,Wunderground v.1.15,2013-09-03 05:50:00,
2013-09-03 01:55:00,78.5,74.6,29.96,SE,138,0.0,2.0,88,0.00,,,0.00,Wunderground v.1.15,2013-09-03 05:55:00,
2013-09-03 02:05:00,78.3,74.5,29.95,SE,138,0.0,1.0,88,0.00,,,0.00,Wunderground v.1.15,2013-09-03 06:05:00,
2013-09-03 02:10:00,78.2,74.4,29.95,SE,138,0.0,1.0,88,0.00,,,0.00,Wunderground v.1.15,2013-09-03 06:10:00,
2013-09-03 02:15:00,78.2,74.7,29.94,SE,135,0.0,2.0,89,0.00,,,0.00,Wunderground v.1.15,2013-09-03 06:15:00,
2013-09-03 02:20:00,78.2,74.7,29.94,SE,135,0.0,1.0,89,0.00,,,0.00,Wunderground v.1.15,2013-09-03 06:20:00,
2013-09-03 02:30:00,78.2,74.7,29.94,SE,135,0.0,1.0,89,0.00,,,0.00,Wunderground v.1.15,2013-09-03 06:30:00,
2013-09-03 02:35:00,78.2,74.7,29.94,SE,135,0.0,1.0,89,0.00,,,0.00,Wunderground v.1.15,2013-09-03 06:35:00,
2013-09-03 02:40:00,78.2,74.7,29.94,SE,135,0.0,1.0,89,0.00,,,0.00,Wunderground v.1.15,2013-09-03 06:40:00,
2013-09-03 02:45:00,78.2,75.0,29.94,SE,135,0.0,1.0,90,0.00,,,0.00,Wunderground v.1.15,2013-09-03 06:45:00,
2013-09-03 02:50:00,78.2,75.0,29.94,SE,135,0.0,1.0,90,0.00,,,0.00,Wunderground v.1.15,2013-09-03 06:50:00,
2013-09-03 02:55:00,78.2,75.0,29.94,SE,135,0.0,1.0,90,0.00,,,0.00,Wunderground v.1.15,2013-09-03 06:55:00,
2013-09-03 03:00:00,78.3,75.1,29.94,SE,135,0.0,1.0,90,0.00,,,0.00,Wunderground v.1.15,2013-09-03 07:00:00,
2013-09-03 03:05:00,78.3,75.1,29.93,SE,135,0.0,1.0,90,0.00,,,0.00,Wunderground v.1.15,2013-09-03 07:05:00,
2013-09-03 03:15:00,78.3,75.1,29.93,SE,135,0.0,1.0,90,0.00,,,0.00,Wunderground v.1.15,2013-09-03 07:15:00,
2013-09-03 03:20:00,78.3,75.1,29.93,SE,135,0.0,1.0,90,0.00,,,0.00,Wunderground v.1.15,2013-09-03 07:20:00,
2013-09-03 03:25:00,78.3,75.1,29.93,SE,135,0.0,1.0,90,0.00,,,0.00,Wunderground v.1.15,2013-09-03 07:25:00,
2013-09-03 03:35:00,78.2,75.0,29.93,SE,135,0.0,1.0,90,0.00,,,0.00,Wunderground v.1.15,2013-09-03 07:35:00,
2013-09-03 03:40:00,78.2,75.0,29.93,SE,135,0.0,1.0,90,0.00,,,0.00,Wunderground v.1.15,2013-09-03 07:40:00,
2013-09-03 03:45:00,78.2,75.0,29.93,SE,135,0.0,1.0,90,0.00,,,0.00,Wunderground v.1.15,2013-09-03 07:45:00,
2013-09-03 03:50:00,78.3,75.1,29.93,SE,135,0.0,1.0,90,0.00,,,0.00,Wunderground v.1.15,2013-09-03 07:50:00,
2013-09-03 03:55:00,78.2,74.7,29.93,SE,135,0.0,1.0,89,0.00,,,0.00,Wunderground v.1.15,2013-09-03 07:55:00,
2013-09-03 04:00:00,78.2,74.7,29.93,SE,135,0.0,1.0,89,0.00,,,0.00,Wunderground v.1.15,2013-09-03 08:00:00,
2013-09-03 04:05:00,78.2,74.7,29.93,SE,135,0.0,1.0,89,0.00,,,0.00,Wunderground v.1.15,2013-09-03 08:05:00,
2013-09-03 04:10:00,78.2,74.7,29.93,SE,135,0.0,1.0,89,0.00,,,0.00,Wunderground v.1.15,2013-09-03 08:10:00,
2013-09-03 04:15:00,78.2,74.7,29.93,SE,135,0.0,1.0,89,0.00,,,0.00,Wunderground v.1.15,2013-09-03 08:15:00,
2013-09-03 04:20:00,78.1,74.6,29.93,SE,135,0.0,1.0,89,0.00,,,0.00,Wunderground v.1.15,2013-09-03 08:20:00,
2013-09-03 04:25:00,78.1,74.6,29.93,SE,135,0.0,1.0,89,0.00,,,0.00,Wunderground v.1.15,2013-09-03 08:25:00,
2013-09-03 04:35:00,78.0,74.5,29.92,SE,135,0.0,1.0,89,0.00,,,0.00,Wunderground v.1.15,2013-09-03 08:35:00,
2013-09-03 04:45:00,77.9,74.4,29.92,SE,135,0.0,1.0,89,0.00,,,0.00,Wunderground v.1.15,2013-09-03 08:45:00,
2013-09-03 04:50:00,77.8,74.6,29.92,SE,135,0.0,1.0,90,0.00,,,0.00,Wunderground v.1.15,2013-09-03 08:50:00,
2013-09-03 04:55:00,77.8,74.6,29.92,SE,135,0.0,1.0,90,0.00,,,0.00,Wunderground v.1.15,2013-09-03 08:55:00,
2013-09-03 05:00:00,77.8,74.6,29.92,SE,135,0.0,1.0,90,0.00,,,0.00,Wunderground v.1.15,2013-09-03 09:00:00,
2013-09-03 05:05:00,77.7,74.5,29.92,SE,135,0.0,1.0,90,0.00,,,0.00,Wunderground v.1.15,2013-09-03 09:05:00,
2013-09-03 05:10:00,77.6,74.4,29.92,SE,135,0.0,1.0,90,0.00,,,0.00,Wunderground v.1.15,2013-09-03 09:10:00,
2013-09-03 05:15:00,77.6,74.4,29.93,SE,135,0.0,1.0,90,0.00,,,0.00,Wunderground v.1.15,2013-09-03 09:15:00,
2013-09-03 05:20:00,77.5,74.3,29.93,SE,135,0.0,1.0,90,0.00,,,0.00,Wunderground v.1.15,2013-09-03 09:20:00,
2013-09-03 05:25:00,77.5,74.3,29.93,SE,135,0.0,1.0,90,0.00,,,0.00,Wunderground v.1.15,2013-09-03 09:25:00,
2013-09-03 05:30:00,77.5,74.3,29.93,SE,135,0.0,1.0,90,0.00,,,0.00,Wunderground v.1.15,2013-09-03 09:30:00,
2013-09-03 05:35:00,77.5,74.3,29.93,SE,135,0.0,1.0,90,0.00,,,0.00,Wunderground v.1.15,2013-09-03 09:35:00,
2013-09-03 05:40:00,77.5,74.7,29.93,SE,135,0.0,1.0,91,0.00,,,0.00,Wunderground v.1.15,2013-09-03 09:40:00,
2013-09-03 05:45:00,77.4,74.6,29.93,SE,135,0.0,1.0,91,0.00,,,0.00,Wunderground v.1.15,2013-09-03 09:45:00,
2013-09-03 05:50:00,77.3,74.1,29.94,SE,135,0.0,1.0,90,0.00,,,0.00,Wunderground v.1.15,2013-09-03 09:50:00,
2013-09-03 05:55:00,77.3,74.5,29.94,SE,135,0.0,1.0,91,0.00,,,0.00,Wunderground v.1.15,2013-09-03 09:55:00,
2013-09-03 06:05:00,77.4,74.6,29.94,SE,135,0.0,1.0,91,0.00,,,0.00,Wunderground v.1.15,2013-09-03 10:05:00,
2013-09-03 06:10:00,77.5,74.7,29.93,SE,135,0.0,1.0,91,0.00,,,0.00,Wunderground v.1.15,2013-09-03 10:10:00,
2013-09-03 06:20:00,77.5,74.7,29.94,SE,135,0.0,1.0,91,0.00,,,0.00,Wunderground v.1.15,2013-09-03 10:20:00,
2013-09-03 06:25:00,77.5,74.7,29.95,SE,135,0.0,1.0,91,0.00,,,0.00,Wunderground v.1.15,2013-09-03 10:25:00,
2013-09-03 06:30:00,77.6,74.8,29.95,SE,135,0.0,1.0,91,0.00,,,0.00,Wunderground v.1.15,2013-09-03 10:30:00,
2013-09-03 06:35:00,77.5,74.7,29.96,SE,135,0.0,1.0,91,0.00,,,0.00,Wunderground v.1.15,2013-09-03 10:35:00,
2013-09-03 06:40:00,77.5,74.7,29.95,SE,135,0.0,1.0,91,0.00,,,0.00,Wunderground v.1.15,2013-09-03 10:40:00,
2013-09-03 06:45:00,77.5,74.7,29.95,SE,135,0.0,1.0,91,0.00,,,0.00,Wunderground v.1.15,2013-09-03 10:45:00,
2013-09-03 06:50:00,77.4,74.6,29.96,SE,135,0.0,1.0,91,0.00,,,0.00,Wunderground v.1.15,2013-09-03 10:50:00,
2013-09-03 06:55:00,77.3,74.5,29.95,SE,135,0.0,1.0,91,0.00,,,0.00,Wunderground v.1.15,2013-09-03 10:55:00,
2013-09-03 07:00:00,77.3,74.5,29.96,SE,135,0.0,1.0,91,0.00,,,0.00,Wunderground v.1.15,2013-09-03 11:00:00,
2013-09-03 07:05:00,77.4,74.6,29.95,SE,135,0.0,1.0,91,0.00,,,0.00,Wunderground v.1.15,2013-09-03 11:05:00,
2013-09-03 07:10:00,77.3,74.5,29.96,SE,135,0.0,1.0,91,0.00,,,0.00,Wunderground v.1.15,2013-09-03 11:10:00,
2013-09-03 07:15:00,77.4,74.6,29.96,SE,135,0.0,1.0,91,0.00,,,0.00,Wunderground v.1.15,2013-09-03 11:15:00,
2013-09-03 07:20:00,77.3,74.5,29.96,SE,135,0.0,1.0,91,0.00,,,0.00,Wunderground v.1.15,2013-09-03 11:20:00,
2013-09-03 07:25:00,77.3,74.8,29.96,SE,135,0.0,1.0,92,0.00,,,0.00,Wunderground v.1.15,2013-09-03 11:25:00,
2013-09-03 07:30:00,77.3,74.8,29.96,SE,135,0.0,1.0,92,0.00,,,0.00,Wunderground v.1.15,2013-09-03 11:30:00,
2013-09-03 07:40:00,77.5,75.0,29.96,SE,135,0.0,1.0,92,0.00,,,0.00,Wunderground v.1.15,2013-09-03 11:40:00,
2013-09-03 07:45:00,77.7,75.2,29.96,SE,135,0.0,1.0,92,0.00,,,0.00,Wunderground v.1.15,2013-09-03 11:45:00,
2013-09-03 07:50:00,78.0,75.5,29.96,SE,135,0.0,1.0,92,0.00,,,0.00,Wunderground v.1.15,2013-09-03 11:50:00,
2013-09-03 07:55:00,78.4,75.9,29.96,SE,135,0.0,1.0,92,0.00,,,0.00,Wunderground v.1.15,2013-09-03 11:55:00,
2013-09-03 08:00:00,78.7,76.2,29.96,SE,135,0.0,1.0,92,0.00,,,0.00,Wunderground v.1.15,2013-09-03 12:00:00,
2013-09-03 08:05:00,79.0,76.5,29.96,SE,135,0.0,1.0,92,0.00,,,0.00,Wunderground v.1.15,2013-09-03 12:05:00,
2013-09-03 08:10:00,79.4,76.5,29.96,SE,135,0.0,1.0,91,0.00,,,0.00,Wunderground v.1.15,2013-09-03 12:10:00,
2013-09-03 08:15:00,79.7,76.8,29.96,SE,135,0.0,1.0,91,0.00,,,0.00,Wunderground v.1.15,2013-09-03 12:15:00,
2013-09-03 08:20:00,80.3,77.4,29.96,SE,135,0.0,1.0,91,0.00,,,0.00,Wunderground v.1.15,2013-09-03 12:20:00,
2013-09-03 08:25:00,80.7,77.5,29.97,SE,135,0.0,1.0,90,0.00,,,0.00,Wunderground v.1.15,2013-09-03 12:25:00,
2013-09-03 08:30:00,81.4,78.2,29.97,SE,135,0.0,1.0,90,0.00,,,0.00,Wunderground v.1.15,2013-09-03 12:30:00,
2013-09-03 08:35:00,81.9,78.0,29.97,SE,135,0.0,1.0,88,0.00,,,0.00,Wunderground v.1.15,2013-09-03 12:35:00,
2013-09-03 08:40:00,82.1,77.8,29.97,SE,135,0.0,1.0,87,0.00,,,0.00,Wunderground v.1.15,2013-09-03 12:40:00,
2013-09-03 08:45:00,82.2,77.9,29.97,SE,135,0.0,1.0,87,0.00,,,0.00,Wunderground v.1.15,2013-09-03 12:45:00,
2013-09-03 08:50:00,82.0,77.4,29.97,SE,135,0.0,1.0,86,0.00,,,0.00,Wunderground v.1.15,2013-09-03 12:50:00,
2013-09-03 08:55:00,82.0,77.4,29.97,SE,135,0.0,1.0,86,0.00,,,0.00,Wunderground v.1.15,2013-09-03 12:55:00,
2013-09-03 09:00:00,82.4,77.4,29.97,SE,135,0.0,1.0,85,0.00,,,0.00,Wunderground v.1.15,2013-09-03 13:00:00,
2013-09-03 09:05:00,82.9,78.3,29.98,SE,135,0.0,1.0,86,0.00,,,0.00,Wunderground v.1.15,2013-09-03 13:05:00,
2013-09-03 09:10:00,83.1,78.5,29.98,SE,135,0.0,1.0,86,0.00,,,0.00,Wunderground v.1.15,2013-09-03 13:10:00,
2013-09-03 09:15:00,83.5,78.5,29.98,SE,135,0.0,1.0,85,0.00,,,0.00,Wunderground v.1.15,2013-09-03 13:15:00,
2013-09-03 09:20:00,84.0,78.6,29.98,SE,135,0.0,1.0,84,0.00,,,0.00,Wunderground v.1.15,2013-09-03 13:20:00,
2013-09-03 09:25:00,84.6,78.9,29.98,SE,135,0.0,1.0,83,0.00,,,0.00,Wunderground v.1.15,2013-09-03 13:25:00,
2013-09-03 09:30:00,84.8,79.1,29.98,SE,135,0.0,1.0,83,0.00,,,0.00,Wunderground v.1.15,2013-09-03 13:30:00,
2013-09-03 09:35:00,85.3,79.5,29.99,SE,135,0.0,1.0,83,0.00,,,0.00,Wunderground v.1.15,2013-09-03 13:35:00,
2013-09-03 09:40:00,85.7,78.8,29.99,SE,135,0.0,1.0,80,0.00,,,0.00,Wunderground v.1.15,2013-09-03 13:40:00,
2013-09-03 09:45:00,85.8,78.9,29.99,SE,135,0.0,1.0,80,0.00,,,0.00,Wunderground v.1.15,2013-09-03 13:45:00,
2013-09-03 09:50:00,86.1,79.2,29.99,SE,135,0.0,1.0,80,0.00,,,0.00,Wunderground v.1.15,2013-09-03 13:50:00,
2013-09-03 09:55:00,86.6,78.9,29.99,SE,135,0.0,3.0,78,0.00,,,0.00,Wunderground v.1.15,2013-09-03 13:55:00,
2013-09-03 10:00:00,86.0,77.5,29.99,WSW,247,1.0,4.0,76,0.00,,,0.00,Wunderground v.1.15,2013-09-03 14:00:00,
2013-09-03 10:05:00,85.3,77.3,29.99,WSW,245,2.0,4.0,77,0.00,,,0.00,Wunderground v.1.15,2013-09-03 14:05:00,
2013-09-03 10:10:00,85.0,77.4,29.99,WSW,245,1.0,1.0,78,0.00,,,0.00,Wunderground v.1.15,2013-09-03 14:10:00,
2013-09-03 10:15:00,84.9,77.3,29.99,WSW,245,0.0,1.0,78,0.00,,,0.00,Wunderground v.1.15,2013-09-03 14:15:00,
2013-09-03 10:20:00,85.0,77.8,30.00,WSW,245,0.0,1.0,79,0.00,,,0.00,Wunderground v.1.15,2013-09-03 14:20:00,
2013-09-03 10:25:00,84.8,77.2,30.00,WSW,254,1.0,1.0,78,0.00,,,0.00,Wunderground v.1.15,2013-09-03 14:25:00,
2013-09-03 10:30:00,84.5,76.9,30.00,WSW,256,1.0,2.0,78,0.00,,,0.00,Wunderground v.1.15,2013-09-03 14:30:00,
2013-09-03 10:35:00,84.2,77.0,30.00,WSW,247,1.0,2.0,79,0.00,,,0.00,Wunderground v.1.15,2013-09-03 14:35:00,
2013-09-03 10:40:00,84.1,76.9,30.00,WSW,248,1.0,1.0,79,0.00,,,0.00,Wunderground v.1.15,2013-09-03 14:40:00,
2013-09-03 10:50:00,83.9,77.4,30.01,WSW,248,0.0,1.0,81,0.00,,,0.00,Wunderground v.1.15,2013-09-03 14:50:00,
2013-09-03 10:55:00,83.9,77.4,30.01,WSW,248,0.0,1.0,81,0.00,,,0.00,Wunderground v.1.15,2013-09-03 14:55:00,
2013-09-03 11:00:00,84.0,77.9,30.01,WSW,248,0.0,1.0,82,0.00,,,0.00,Wunderground v.1.15,2013-09-03 15:00:00,
2013-09-03 11:05:00,84.6,78.5,30.01,WSW,254,0.0,1.0,82,0.00,,,0.00,Wunderground v.1.15,2013-09-03 15:05:00,
2013-09-03 11:10:00,85.1,78.6,30.01,WSW,254,0.0,1.0,81,0.00,,,0.00,Wunderground v.1.15,2013-09-03 15:10:00,
2013-09-03 11:15:00,85.3,78.4,30.01,WSW,254,0.0,1.0,80,0.00,,,0.00,Wunderground v.1.15,2013-09-03 15:15:00,
2013-09-03 11:20:00,85.3,78.0,30.01,WSW,254,0.0,1.0,79,0.00,,,0.00,Wunderground v.1.15,2013-09-03 15:20:00,
2013-09-03 11:25:00,85.3,78.0,30.02,WSW,254,0.0,1.0,79,0.00,,,0.00,Wunderground v.1.15,2013-09-03 15:25:00,
2013-09-03 11:30:00,85.3,78.0,30.02,WSW,254,0.0,1.0,79,0.00,,,0.00,Wunderground v.1.15,2013-09-03 15:30:00,
2013-09-03 11:35:00,85.4,78.5,30.02,WSW,254,0.0,1.0,80,0.00,,,0.00,Wunderground v.1.15,2013-09-03 15:35:00,
2013-09-03 11:40:00,85.5,78.2,30.02,WSW,254,0.0,1.0,79,0.00,,,0.00,Wunderground v.1.15,2013-09-03 15:40:00,
2013-09-03 11:45:00,85.4,77.8,30.01,WSW,254,0.0,1.0,78,0.00,,,0.00,Wunderground v.1.15,2013-09-03 15:45:00,
2013-09-03 11:50:00,85.2,77.9,30.02,WSW,254,0.0,1.0,79,0.00,,,0.00,Wunderground v.1.15,2013-09-03 15:50:00,
2013-09-03 11:55:00,84.8,77.6,30.02,West,275,0.0,1.0,79,0.00,,,0.00,Wunderground v.1.15,2013-09-03 15:55:00,
2013-09-03 12:00:00,84.3,76.7,30.02,West,275,0.0,1.0,78,0.00,,,0.00,Wunderground v.1.15,2013-09-03 16:00:00,
2013-09-03 12:05:00,84.0,76.8,30.01,West,275,0.0,1.0,79,0.00,,,0.00,Wunderground v.1.15,2013-09-03 16:05:00,
2013-09-03 12:10:00,83.7,77.2,30.01,West,275,0.0,1.0,81,0.00,,,0.00,Wunderground v.1.15,2013-09-03 16:10:00,
2013-09-03 12:15:00,83.6,77.9,30.02,West,275,0.0,1.0,83,0.00,,,0.00,Wunderground v.1.15,2013-09-03 16:15:00,
2013-09-03 12:20:00,83.2,77.1,30.02,West,275,0.0,1.0,82,0.00,,,0.00,Wunderground v.1.15,2013-09-03 16:20:00,
2013-09-03 12:25:00,82.7,76.6,30.02,West,275,0.0,1.0,82,0.00,,,0.00,Wunderground v.1.15,2013-09-03 16:25:00,
2013-09-03 12:30:00,82.5,76.8,30.02,West,275,0.0,1.0,83,0.00,,,0.00,Wunderground v.1.15,2013-09-03 16:30:00,
2013-09-03 12:35:00,82.3,77.0,30.01,SSE,148,0.0,3.0,84,0.00,,,0.00,Wunderground v.1.15,2013-09-03 16:35:00,
2013-09-03 12:40:00,82.0,76.3,30.02,ESE,113,1.0,1.0,83,0.00,,,0.00,Wunderground v.1.15,2013-09-03 16:40:00,
2013-09-03 12:45:00,81.3,74.2,30.02,ESE,113,1.0,1.0,79,0.00,,,0.00,Wunderground v.1.15,2013-09-03 16:45:00,
2013-09-03 12:50:00,80.4,72.9,30.02,ESE,113,0.0,1.0,78,0.00,,,0.00,Wunderground v.1.15,2013-09-03 16:50:00,
2013-09-03 12:55:00,79.7,72.2,30.02,ENE,69,0.0,1.0,78,0.00,,,0.00,Wunderground v.1.15,2013-09-03 16:55:00,
2013-09-03 13:00:00,79.1,72.8,30.02,NE,41,1.0,3.0,81,0.00,,,0.00,Wunderground v.1.15,2013-09-03 17:00:00,
2013-09-03 13:05:00,78.7,72.7,30.02,SSE,153,2.0,3.0,82,0.00,,,0.00,Wunderground v.1.15,2013-09-03 17:05:00,
2013-09-03 13:10:00,78.1,72.2,30.01,SE,130,3.0,3.0,82,0.00,,,0.00,Wunderground v.1.15,2013-09-03 17:10:00,
2013-09-03 13:15:00,77.9,72.0,30.01,NNE,28,1.0,3.0,82,0.00,,,0.00,Wunderground v.1.15,2013-09-03 17:15:00,
2013-09-03 13:20:00,78.1,72.5,30.00,NNE,29,0.0,1.0,83,0.00,,,0.00,Wunderground v.1.15,2013-09-03 17:20:00,
2013-09-03 13:25:00,78.4,72.8,29.99,NNE,29,0.0,1.0,83,0.00,,,0.00,Wunderground v.1.15,2013-09-03 17:25:00,
2013-09-03 13:30:00,79.6,74.0,29.99,NW,321,0.0,1.0,83,0.00,,,0.00,Wunderground v.1.15,2013-09-03 17:30:00,
2013-09-03 13:35:00,81.4,75.0,29.99,NW,321,0.0,1.0,81,0.00,,,0.00,Wunderground v.1.15,2013-09-03 17:35:00,
2013-09-03 13:40:00,83.2,76.0,29.99,NNW,329,0.0,1.0,79,0.00,,,0.00,Wunderground v.1.15,2013-09-03 17:40:00,
2013-09-03 13:45:00,84.6,76.6,29.99,NNW,329,0.0,1.0,77,0.00,,,0.00,Wunderground v.1.15,2013-09-03 17:45:00,
2013-09-03 13:50:00,86.0,77.1,29.99,NNW,329,0.0,1.0,75,0.00,,,0.00,Wunderground v.1.15,2013-09-03 17:50:00,
2013-09-03 13:55:00,87.0,77.3,29.99,NNW,329,0.0,1.0,73,0.00,,,0.00,Wunderground v.1.15,2013-09-03 17:55:00,
2013-09-03 14:00:00,87.4,77.7,29.99,NNW,329,0.0,1.0,73,0.00,,,0.00,Wunderground v.1.15,2013-09-03 18:00:00,
2013-09-03 14:05:00,87.6,77.9,29.98,NNW,329,0.0,1.0,73,0.00,,,0.00,Wunderground v.1.15,2013-09-03 18:05:00,
2013-09-03 14:10:00,87.8,78.1,29.98,NNW,329,0.0,1.0,73,0.00,,,0.00,Wunderground v.1.15,2013-09-03 18:10:00,
2013-09-03 14:20:00,88.1,77.9,29.98,NNW,336,0.0,1.0,72,0.00,,,0.00,Wunderground v.1.15,2013-09-03 18:20:00,
2013-09-03 14:25:00,87.6,77.5,29.98,NNW,337,0.0,1.0,72,0.00,,,0.00,Wunderground v.1.15,2013-09-03 18:25:00,
2013-09-03 14:30:00,87.0,78.1,29.97,NNE,15,0.0,1.0,75,0.00,,,0.00,Wunderground v.1.15,2013-09-03 18:30:00,
2013-09-03 14:35:00,86.7,78.2,29.97,NNE,15,0.0,1.0,76,0.00,,,0.00,Wunderground v.1.15,2013-09-03 18:35:00,
2013-09-03 14:40:00,86.5,77.6,29.97,NNE,15,0.0,1.0,75,0.00,,,0.00,Wunderground v.1.15,2013-09-03 18:40:00,
2013-09-03 14:45:00,86.4,77.1,29.97,NNE,15,0.0,1.0,74,0.00,,,0.00,Wunderground v.1.15,2013-09-03 18:45:00,
2013-09-03 14:50:00,86.2,77.3,29.97,NNE,15,0.0,1.0,75,0.00,,,0.00,Wunderground v.1.15,2013-09-03 18:50:00,
2013-09-03 14:55:00,86.2,77.3,29.97,NNE,15,0.0,1.0,75,0.00,,,0.00,Wunderground v.1.15,2013-09-03 18:55:00,
2013-09-03 15:00:00,86.2,76.9,29.96,NNE,15,0.0,1.0,74,0.00,,,0.00,Wunderground v.1.15,2013-09-03 19:00:00,
2013-09-03 15:05:00,86.1,76.8,29.96,NNE,15,0.0,1.0,74,0.00,,,0.00,Wunderground v.1.15,2013-09-03 19:05:00,
2013-09-03 15:10:00,86.0,75.5,29.96,NNE,15,0.0,1.0,71,0.00,,,0.00,Wunderground v.1.15,2013-09-03 19:10:00,
2013-09-03 15:15:00,86.2,76.1,29.96,NNE,15,0.0,1.0,72,0.00,,,0.00,Wunderground v.1.15,2013-09-03 19:15:00,
2013-09-03 15:20:00,86.4,76.3,29.96,NNE,15,0.0,1.0,72,0.00,,,0.00,Wunderground v.1.15,2013-09-03 19:20:00,
2013-09-03 15:25:00,86.6,76.5,29.96,NNE,15,0.0,1.0,72,0.00,,,0.00,Wunderground v.1.15,2013-09-03 19:25:00,
2013-09-03 15:30:00,86.7,75.7,29.96,NNE,15,0.0,1.0,70,0.00,,,0.00,Wunderground v.1.15,2013-09-03 19:30:00,
2013-09-03 15:35:00,86.5,75.5,29.96,SE,132,0.0,1.0,70,0.00,,,0.00,Wunderground v.1.15,2013-09-03 19:35:00,
2013-09-03 15:45:00,84.7,73.8,29.95,East,81,1.0,4.0,70,0.00,,,0.00,Wunderground v.1.15,2013-09-03 19:45:00,
2013-09-03 15:50:00,84.0,73.2,29.95,ESE,116,1.0,1.0,70,0.00,,,0.00,Wunderground v.1.15,2013-09-03 19:50:00,
2013-09-03 15:55:00,83.6,74.0,29.94,ESE,115,0.0,1.0,73,0.00,,,0.00,Wunderground v.1.15,2013-09-03 19:55:00,
2013-09-03 16:05:00,83.9,75.5,29.94,ESE,113,0.0,1.0,76,0.00,,,0.00,Wunderground v.1.15,2013-09-03 20:05:00,
2013-09-03 16:10:00,84.3,76.7,29.94,ESE,111,0.0,1.0,78,0.00,,,0.00,Wunderground v.1.15,2013-09-03 20:10:00,
2013-09-03 16:15:00,84.6,76.6,29.93,ESE,111,0.0,1.0,77,0.00,,,0.00,Wunderground v.1.15,2013-09-03 20:15:00,
2013-09-03 16:20:00,85.2,77.6,29.93,ESE,111,0.0,1.0,78,0.00,,,0.00,Wunderground v.1.15,2013-09-03 20:20:00,
2013-09-03 16:25:00,85.7,78.0,29.94,SE,126,0.0,1.0,78,0.00,,,0.00,Wunderground v.1.15,2013-09-03 20:25:00,
2013-09-03 16:30:00,85.8,78.1,29.94,SE,126,0.0,1.0,78,0.00,,,0.00,Wunderground v.1.15,2013-09-03 20:30:00,
2013-09-03 16:35:00,85.9,77.1,29.94,SE,126,0.0,1.0,75,0.00,,,0.00,Wunderground v.1.15,2013-09-03 20:35:00,
2013-09-03 16:40:00,86.4,76.7,29.94,SE,129,0.0,1.0,73,0.00,,,0.00,Wunderground v.1.15,2013-09-03 20:40:00,
2013-09-03 16:45:00,87.1,76.5,29.94,SE,135,1.0,1.0,71,0.00,,,0.00,Wunderground v.1.15,2013-09-03 20:45:00,
2013-09-03 16:50:00,87.5,76.5,29.94,SSE,168,1.0,3.0,70,0.00,,,0.00,Wunderground v.1.15,2013-09-03 20:50:00,
2013-09-03 16:55:00,88.1,76.6,29.94,South,169,1.0,3.0,69,0.00,,,0.00,Wunderground v.1.15,2013-09-03 20:55:00,
2013-09-03 17:00:00,88.4,76.5,29.94,SSE,166,2.0,4.0,68,0.00,,,0.00,Wunderground v.1.15,2013-09-03 21:00:00,
2013-09-03 17:05:00,88.3,76.4,29.94,SSW,212,2.0,4.0,68,0.00,,,0.00,Wunderground v.1.15,2013-09-03 21:05:00,
2013-09-03 17:10:00,88.3,77.3,29.93,SSE,158,1.0,5.0,70,0.00,,,0.00,Wunderground v.1.15,2013-09-03 21:10:00,
2013-09-03 17:15:00,88.4,76.9,29.93,South,184,3.0,5.0,69,0.00,,,0.00,Wunderground v.1.15,2013-09-03 21:15:00,
2013-09-03 17:20:00,88.6,77.1,29.93,SSW,200,3.0,3.0,69,0.00,,,0.00,Wunderground v.1.15,2013-09-03 21:20:00,
2013-09-03 17:25:00,88.7,76.8,29.93,WSW,252,3.0,4.0,68,0.00,,,0.00,Wunderground v.1.15,2013-09-03 21:25:00,
2013-09-03 17:30:00,88.3,76.4,29.93,SW,234,3.0,4.0,68,0.00,,,0.00,Wunderground v.1.15,2013-09-03 21:30:00,
2013-09-03 17:35:00,88.3,77.3,29.93,SSW,208,3.0,7.0,70,0.00,,,0.00,Wunderground v.1.15,2013-09-03 21:35:00,
2013-09-03 17:40:00,88.0,76.5,29.93,SW,233,4.0,4.0,69,0.00,,,0.00,Wunderground v.1.15,2013-09-03 21:40:00,
2013-09-03 17:45:00,88.2,77.2,29.93,WSW,242,3.0,4.0,70,0.00,,,0.00,Wunderground v.1.15,2013-09-03 21:45:00,
2013-09-03 17:55:00,88.2,77.2,29.92,WSW,237,3.0,3.0,70,0.00,,,0.00,Wunderground v.1.15,2013-09-03 21:55:00,
2013-09-03 18:00:00,88.3,76.8,29.92,WSW,252,2.0,2.0,69,0.00,,,0.00,Wunderground v.1.15,2013-09-03 22:00:00,
2013-09-03 18:05:00,88.4,77.4,29.92,SW,219,1.0,2.0,70,0.00,,,0.00,Wunderground v.1.15,2013-09-03 22:05:00,
2013-09-03 18:10:00,88.8,76.9,29.93,SW,230,1.0,1.0,68,0.00,,,0.00,Wunderground v.1.15,2013-09-03 22:10:00,
2013-09-03 18:15:00,89.0,77.5,29.92,SW,230,0.0,1.0,69,0.00,,,0.00,Wunderground v.1.15,2013-09-03 22:15:00,
2013-09-03 18:20:00,89.2,77.3,29.92,SW,230,0.0,1.0,68,0.00,,,0.00,Wunderground v.1.15,2013-09-03 22:20:00,
2013-09-03 18:25:00,89.3,77.8,29.92,SW,230,0.0,1.0,69,0.00,,,0.00,Wunderground v.1.15,2013-09-03 22:25:00,
2013-09-03 18:30:00,89.3,77.3,29.92,WSW,244,0.0,1.0,68,0.00,,,0.00,Wunderground v.1.15,2013-09-03 22:30:00,
2013-09-03 18:35:00,89.3,77.3,29.93,WSW,248,0.0,1.0,68,0.00,,,0.00,Wunderground v.1.15,2013-09-03 22:35:00,
2013-09-03 18:40:00,88.8,77.3,29.93,WSW,247,1.0,3.0,69,0.00,,,0.00,Wunderground v.1.15,2013-09-03 22:40:00,
2013-09-03 18:45:00,88.4,76.9,29.93,WSW,252,1.0,3.0,69,0.00,,,0.00,Wunderground v.1.15,2013-09-03 22:45:00,
2013-09-03 18:50:00,88.0,77.0,29.93,WSW,252,1.0,1.0,70,0.00,,,0.00,Wunderground v.1.15,2013-09-03 22:50:00,
2013-09-03 18:55:00,87.6,77.0,29.94,WSW,246,1.0,1.0,71,0.00,,,0.00,Wunderground v.1.15,2013-09-03 22:55:00,
2013-09-03 19:00:00,87.1,76.5,29.94,WSW,246,1.0,1.0,71,0.00,,,0.00,Wunderground v.1.15,2013-09-03 23:00:00,
2013-09-03 19:05:00,86.8,77.1,29.94,WSW,248,1.0,2.0,73,0.00,,,0.00,Wunderground v.1.15,2013-09-03 23:05:00,
2013-09-03 19:10:00,86.5,76.8,29.94,WSW,253,1.0,2.0,73,0.00,,,0.00,Wunderground v.1.15,2013-09-03 23:10:00,
2013-09-03 19:15:00,86.2,76.5,29.94,WSW,248,1.0,4.0,73,0.00,,,0.00,Wunderground v.1.15,2013-09-03 23:15:00,
2013-09-03 19:20:00,86.0,76.3,29.94,WSW,242,1.0,1.0,73,0.00,,,0.00,Wunderground v.1.15,2013-09-03 23:20:00,
2013-09-03 19:25:00,85.7,76.5,29.94,WSW,242,1.0,1.0,74,0.00,,,0.00,Wunderground v.1.15,2013-09-03 23:25:00,
2013-09-03 19:30:00,85.6,75.9,29.95,WSW,242,0.0,1.0,73,0.00,,,0.00,Wunderground v.1.15,2013-09-03 23:30:00,
2013-09-03 19:35:00,85.6,76.4,29.94,WSW,242,0.0,1.0,74,0.00,,,0.00,Wunderground v.1.15,2013-09-03 23:35:00,
2013-09-03 19:40:00,85.4,76.2,29.94,WSW,242,0.0,1.0,74,0.00,,,0.00,Wunderground v.1.15,2013-09-03 23:40:00,
2013-09-03 19:45:00,85.3,76.5,29.95,WSW,242,0.0,1.0,75,0.00,,,0.00,Wunderground v.1.15,2013-09-03 23:45:00,
2013-09-03 19:50:00,85.1,76.3,29.95,WSW,242,0.0,1.0,75,0.00,,,0.00,Wunderground v.1.15,2013-09-03 23:50:00,
2013-09-03 19:55:00,85.0,76.2,29.95,WSW,242,0.0,1.0,75,0.00,,,0.00,Wunderground v.1.15,2013-09-03 23:55:00,
2013-09-03 20:00:00,84.8,76.0,29.95,WSW,242,0.0,1.0,75,0.00,,,0.00,Wunderground v.1.15,2013-09-04 00:00:00,
2013-09-03 20:05:00,84.7,76.3,29.95,WSW,242,0.0,1.0,76,0.00,,,0.00,Wunderground v.1.15,2013-09-04 00:05:00,
2013-09-03 20:10:00,84.5,76.1,29.96,WSW,242,0.0,1.0,76,0.00,,,0.00,Wunderground v.1.15,2013-09-04 00:10:00,
2013-09-03 20:40:00,83.7,75.7,29.97,WSW,242,0.0,0.0,77,0.00,,,0.00,Wunderground v.1.15,2013-09-04 00:40:00,
2013-09-03 20:45:00,83.6,75.6,29.96,WSW,242,0.0,0.0,77,0.00,,,0.00,Wunderground v.1.15,2013-09-04 00:45:00,
2013-09-03 20:50:00,83.6,75.6,29.97,WSW,242,0.0,0.0,77,0.00,,,0.00,Wunderground v.1.15,2013-09-04 00:50:00,
2013-09-03 20:55:00,83.5,75.5,29.97,WSW,242,0.0,0.0,77,0.00,,,0.00,Wunderground v.1.15,2013-09-04 00:55:00,
2013-09-03 21:00:00,83.5,75.9,29.97,WSW,242,0.0,0.0,78,0.00,,,0.00,Wunderground v.1.15,2013-09-04 01:00:00,
2013-09-03 21:05:00,83.4,75.8,29.97,WSW,242,0.0,0.0,78,0.00,,,0.00,Wunderground v.1.15,2013-09-04 01:05:00,
2013-09-03 21:15:00,83.3,75.7,29.97,WSW,242,0.0,0.0,78,0.00,,,0.00,Wunderground v.1.15,2013-09-04 01:15:00,
2013-09-03 21:20:00,83.2,75.6,29.98,WSW,242,0.0,0.0,78,0.00,,,0.00,Wunderground v.1.15,2013-09-04 01:20:00,
2013-09-03 21:25:00,83.2,76.0,29.98,WSW,242,0.0,0.0,79,0.00,,,0.00,Wunderground v.1.15,2013-09-04 01:25:00,
2013-09-03 21:30:00,83.0,75.8,29.98,WSW,242,0.0,0.0,79,0.00,,,0.00,Wunderground v.1.15,2013-09-04 01:30:00,
2013-09-03 21:35:00,82.9,75.7,29.98,WSW,242,0.0,0.0,79,0.00,,,0.00,Wunderground v.1.15,2013-09-04 01:35:00,
2013-09-03 21:40:00,82.8,76.0,29.98,WSW,242,0.0,0.0,80,0.00,,,0.00,Wunderground v.1.15,2013-09-04 01:40:00,
2013-09-03 21:50:00,82.6,75.8,29.98,WSW,242,0.0,0.0,80,0.00,,,0.00,Wunderground v.1.15,2013-09-04 01:50:00,
2013-09-03 21:55:00,82.5,75.7,29.98,WSW,242,0.0,0.0,80,0.00,,,0.00,Wunderground v.1.15,2013-09-04 01:55:00,
2013-09-03 22:00:00,82.3,75.5,29.99,WSW,242,0.0,0.0,80,0.00,,,0.00,Wunderground v.1.15,2013-09-04 02:00:00,
2013-09-03 22:05:00,82.3,75.9,29.99,WSW,242,0.0,0.0,81,0.00,,,0.00,Wunderground v.1.15,2013-09-04 02:05:00,
2013-09-03 22:10:00,82.1,75.7,29.99,WSW,242,0.0,0.0,81,0.00,,,0.00,Wunderground v.1.15,2013-09-04 02:10:00,
2013-09-03 22:15:00,82.0,75.6,29.99,WSW,242,0.0,0.0,81,0.00,,,0.00,Wunderground v.1.15,2013-09-04 02:15:00,
2013-09-03 22:20:00,82.0,75.6,29.99,WSW,242,0.0,0.0,81,0.00,,,0.00,Wunderground v.1.15,2013-09-04 02:20:00,
2013-09-03 22:25:00,81.9,75.5,29.99,WSW,242,0.0,0.0,81,0.00,,,0.00,Wunderground v.1.15,2013-09-04 02:25:00,
2013-09-03 22:30:00,81.8,75.8,29.99,WSW,242,0.0,0.0,82,0.00,,,0.00,Wunderground v.1.15,2013-09-04 02:30:00,
2013-09-03 22:35:00,81.7,75.7,29.98,WSW,242,0.0,0.0,82,0.00,,,0.00,Wunderground v.1.15,2013-09-04 02:35:00,
2013-09-03 22:40:00,81.6,75.6,29.98,WSW,242,0.0,0.0,82,0.00,,,0.00,Wunderground v.1.15,2013-09-04 02:40:00,
2013-09-03 22:45:00,81.5,75.5,29.98,WSW,242,0.0,0.0,82,0.00,,,0.00,Wunderground v.1.15,2013-09-04 02:45:00,
2013-09-03 22:50:00,81.4,75.7,29.99,WSW,242,0.0,0.0,83,0.00,,,0.00,Wunderground v.1.15,2013-09-04 02:50:00,
2013-09-03 22:55:00,81.3,75.6,29.99,WSW,242,0.0,0.0,83,0.00,,,0.00,Wunderground v.1.15,2013-09-04 02:55:00,
2013-09-03 23:00:00,81.2,75.5,29.99,WSW,242,0.0,0.0,83,0.00,,,0.00,Wunderground v.1.15,2013-09-04 03:00:00,
2013-09-03 23:05:00,81.1,75.4,29.98,WSW,242,0.0,0.0,83,0.00,,,0.00,Wunderground v.1.15,2013-09-04 03:05:00,
2013-09-03 23:10:00,81.1,75.8,29.99,WSW,242,0.0,0.0,84,0.00,,,0.00,Wunderground v.1.15,2013-09-04 03:10:00,
2013-09-03 23:15:00,81.0,75.7,29.99,WSW,242,0.0,0.0,84,0.00,,,0.00,Wunderground v.1.15,2013-09-04 03:15:00,
2013-09-03 23:20:00,80.9,75.6,29.99,WSW,242,0.0,0.0,84,0.00,,,0.00,Wunderground v.1.15,2013-09-04 03:20:00,
2013-09-03 23:25:00,80.8,75.5,29.99,WSW,242,0.0,0.0,84,0.00,,,0.00,Wunderground v.1.15,2013-09-04 03:25:00,
2013-09-03 23:30:00,80.7,75.8,29.99,WSW,242,0.0,0.0,85,0.00,,,0.00,Wunderground v.1.15,2013-09-04 03:30:00,
2013-09-03 23:35:00,80.7,75.8,29.99,WSW,242,0.0,0.0,85,0.00,,,0.00,Wunderground v.1.15,2013-09-04 03:35:00,
2013-09-03 23:40:00,80.6,75.7,29.99,WSW,242,0.0,0.0,85,0.00,,,0.00,Wunderground v.1.15,2013-09-04 03:40:00,
2013-09-03 23:45:00,80.6,75.7,29.99,WSW,242,0.0,0.0,85,0.00,,,0.00,Wunderground v.1.15,2013-09-04 03:45:00,
2013-09-03 23:50:00,80.5,75.6,29.99,WSW,242,0.0,0.0,85,0.00,,,0.00,Wunderground v.1.15,2013-09-04 03:50:00,
2013-09-03 23:55:00,80.4,75.8,30.00,WSW,242,0.0,0.0,86,0.00,,,0.00,Wunderground v.1.15,2013-09-04 03:55:00,